createdAt,value
2019-05-01T00:04:11.135Z,29.70
2019-05-01T00:09:14.944Z,29.40
2019-05-01T00:14:19.702Z,30.93
2019-05-01T00:19:22.917Z,30.00
2019-05-01T00:24:26.234Z,27.40
2019-05-01T00:29:29.349Z,32.73
2019-05-01T00:34:32.835Z,32.53
2019-05-01T00:39:36.477Z,33.80
2019-05-01T00:44:40.041Z,30.50
2019-05-01T00:49:43.511Z,34.60
2019-05-01T00:54:48.730Z,32.17
2019-05-01T01:00:14.090Z,29.43
2019-05-01T01:05:17.405Z,35.47
2019-05-01T01:10:20.916Z,37.97
2019-05-01T01:15:24.143Z,34.33
2019-05-01T01:20:27.044Z,33.33
2019-05-01T01:25:29.948Z,32.77
2019-05-01T01:30:33.225Z,37.73
2019-05-01T01:35:36.954Z,36.40
2019-05-01T01:40:40.140Z,33.00
2019-05-01T01:45:46.566Z,31.25
2019-05-01T01:50:50.111Z,32.63
2019-05-01T01:55:53.661Z,31.90
2019-05-01T02:01:25.990Z,30.23
2019-05-01T02:06:30.539Z,40.03
2019-05-01T02:11:33.449Z,31.67
2019-05-01T02:16:37.050Z,34.57
2019-05-01T02:21:40.628Z,30.50
2019-05-01T02:26:46.929Z,36.73
2019-05-01T02:31:52.390Z,34.40
2019-05-01T02:36:58.807Z,40.70
2019-05-01T02:42:02.475Z,43.30
2019-05-01T02:47:09.327Z,36.47
2019-05-01T02:52:12.645Z,34.27
2019-05-01T02:57:19.535Z,36.13
2019-05-01T03:02:26.244Z,39.70
2019-05-01T03:07:32.900Z,37.03
2019-05-01T03:12:39.182Z,33.80
2019-05-01T03:17:50.920Z,31.00
2019-05-01T03:23:11.936Z,34.20
2019-05-01T03:28:15.256Z,37.00
2019-05-01T03:33:18.745Z,26.73
2019-05-01T03:38:21.931Z,33.93
2019-05-01T03:43:25.286Z,28.40
2019-05-01T03:48:29.822Z,31.87
2019-05-01T03:53:34.048Z,25.07
2019-05-01T03:58:37.216Z,26.63
2019-05-01T04:03:47.194Z,24.23
2019-05-01T04:08:51.847Z,34.07
2019-05-01T04:13:54.986Z,30.33
2019-05-01T04:18:59.200Z,21.77
2019-05-01T04:24:03.255Z,21.63
2019-05-01T04:29:30.158Z,25.43
2019-05-01T04:34:42.486Z,22.27
2019-05-01T04:39:45.946Z,22.33
2019-05-01T04:44:49.852Z,19.63
2019-05-01T04:49:53.508Z,20.60
2019-05-01T04:54:56.556Z,20.50
2019-05-01T05:00:00.345Z,25.23
2019-05-01T05:05:04.034Z,22.30
2019-05-01T05:10:07.397Z,24.13
2019-05-01T05:15:26.818Z,22.80
2019-05-01T05:20:29.888Z,19.30
2019-05-01T05:25:33.640Z,16.70
2019-05-01T05:30:37.207Z,22.60
2019-05-01T05:35:42.481Z,16.30
2019-05-01T05:40:46.780Z,18.00
2019-05-01T05:45:50.165Z,19.87
2019-05-01T05:51:25.469Z,17.43
2019-05-01T05:56:38.119Z,13.90
2019-05-01T06:02:00.767Z,13.03
2019-05-01T06:07:24.353Z,14.47
2019-05-01T06:12:41.653Z,6.70
2019-05-01T06:17:59.228Z,8.83
2019-05-01T06:23:27.868Z,6.97
2019-05-01T06:28:31.078Z,11.43
2019-05-01T06:33:43.893Z,8.80
2019-05-01T06:38:39.409Z,9.20
2019-05-01T06:44:04.392Z,12.23
2019-05-01T06:49:24.238Z,7.80
2019-05-01T06:54:29.096Z,9.73
2019-05-01T06:59:34.282Z,9.57
2019-05-01T07:04:39.673Z,8.33
2019-05-01T07:09:44.077Z,10.40
2019-05-01T07:14:50.807Z,10.17
2019-05-01T07:20:16.802Z,10.90
2019-05-01T07:25:20.689Z,7.97
2019-05-01T07:30:30.618Z,9.90
2019-05-01T07:35:36.758Z,12.90
2019-05-01T07:40:41.064Z,12.13
2019-05-01T07:45:52.595Z,12.90
2019-05-01T07:50:55.901Z,10.10
2019-05-01T07:55:59.303Z,10.53
2019-05-01T08:01:33.963Z,8.97
2019-05-01T08:06:37.135Z,10.73
2019-05-01T08:11:44.155Z,12.50
2019-05-01T08:16:45.440Z,14.17
2019-05-01T08:22:03.143Z,10.23
2019-05-01T08:27:08.927Z,13.67
2019-05-01T08:32:33.900Z,9.00
2019-05-01T08:37:35.915Z,10.60
2019-05-01T08:42:42.515Z,13.53
2019-05-01T08:47:46.880Z,11.53
2019-05-01T08:52:50.403Z,13.77
2019-05-01T08:57:55.359Z,13.17
2019-05-01T09:03:08.248Z,12.67
2019-05-01T09:08:04.165Z,15.57
2019-05-01T09:13:07.154Z,11.03
2019-05-01T09:18:10.615Z,15.27
2019-05-01T09:23:14.608Z,18.27
2019-05-01T09:28:29.412Z,13.73
2019-05-01T09:33:32.148Z,15.87
2019-05-01T09:38:35.664Z,13.87
2019-05-01T09:43:39.001Z,14.73
2019-05-01T09:48:42.812Z,16.70
2019-05-01T09:54:05.594Z,17.23
2019-05-01T09:59:12.685Z,17.50
2019-05-01T10:04:14.431Z,18.73
2019-05-01T10:09:18.063Z,26.30
2019-05-01T10:14:21.072Z,21.77
2019-05-01T10:19:24.694Z,26.13
2019-05-01T10:24:31.970Z,30.77
2019-05-01T10:29:52.732Z,25.53
2019-05-01T10:35:19.298Z,25.40
2019-05-01T10:40:27.080Z,30.70
2019-05-01T10:45:28.616Z,26.20
2019-05-01T10:50:31.795Z,28.13
2019-05-01T10:55:35.274Z,27.67
2019-05-01T11:00:40.961Z,35.57
2019-05-01T11:05:55.364Z,27.80
2019-05-01T11:10:50.746Z,30.53
2019-05-01T11:15:53.844Z,30.47
2019-05-01T11:20:57.486Z,37.40
2019-05-01T11:26:00.717Z,38.43
2019-05-01T11:31:05.491Z,37.73
2019-05-01T11:36:21.458Z,37.00
2019-05-01T11:41:41.257Z,39.30
2019-05-01T11:46:44.166Z,40.30
2019-05-01T11:51:47.647Z,30.93
2019-05-01T11:56:50.288Z,32.47
2019-05-01T12:01:53.849Z,28.30
2019-05-01T12:06:57.112Z,34.30
2019-05-01T12:12:04.089Z,29.53
2019-05-01T12:17:14.337Z,27.23
2019-05-01T12:22:17.879Z,32.80
2019-05-01T12:27:20.915Z,30.87
2019-05-01T12:32:24.088Z,31.70
2019-05-01T12:37:32.789Z,34.40
2019-05-01T12:42:36.858Z,36.97
2019-05-01T12:47:59.825Z,41.50
2019-05-01T12:58:36.554Z,46.17
2019-05-01T13:03:39.779Z,39.57
2019-05-01T13:08:42.892Z,47.97
2019-05-01T13:13:48.859Z,42.30
2019-05-01T13:18:52.410Z,39.17
2019-05-01T13:23:56.144Z,34.10
2019-05-01T13:29:03.194Z,41.87
2019-05-01T13:34:06.516Z,39.97
2019-05-01T13:39:11.711Z,31.00
2019-05-01T13:44:15.190Z,34.00
2019-05-01T13:49:18.846Z,39.10
2019-05-01T13:54:22.185Z,36.17
2019-05-01T13:59:25.954Z,38.63
2019-05-01T14:04:30.285Z,36.70
2019-05-01T14:09:33.668Z,32.77
2019-05-01T14:14:37.115Z,41.73
2019-05-01T14:19:43.480Z,33.07
2019-05-01T14:24:51.875Z,31.67
2019-05-01T14:29:55.535Z,47.23
2019-05-01T14:34:58.887Z,25.20
2019-05-01T14:40:02.412Z,26.60
2019-05-01T14:45:08.557Z,32.70
2019-05-01T14:50:13.081Z,30.57
2019-05-01T14:55:16.951Z,30.07
2019-05-01T15:00:20.552Z,27.23
2019-05-01T15:05:24.069Z,24.07
2019-05-01T15:10:29.813Z,19.13
2019-05-01T15:15:55.082Z,20.73
2019-05-01T15:21:00.962Z,14.90
2019-05-01T15:26:04.733Z,23.27
2019-05-01T15:31:08.702Z,21.07
2019-05-01T15:36:12.302Z,18.40
2019-05-01T15:41:33.744Z,11.20
2019-05-01T15:46:39.721Z,16.77
2019-05-01T15:51:44.022Z,12.47
2019-05-01T15:56:47.761Z,12.37
2019-05-01T16:01:51.081Z,13.60
2019-05-01T16:06:54.118Z,14.43
2019-05-01T16:12:16.967Z,15.43
2019-05-01T16:17:20.366Z,36.50
2019-05-01T16:22:23.937Z,14.10
2019-05-01T16:27:27.800Z,11.93
2019-05-01T16:32:31.136Z,10.80
2019-05-01T16:37:34.809Z,12.00
2019-05-01T16:42:40.508Z,18.13
2019-05-01T16:47:44.181Z,15.50
2019-05-01T16:52:48.124Z,14.03
2019-05-01T16:57:51.784Z,9.73
2019-05-01T17:03:15.857Z,19.90
2019-05-01T17:08:36.580Z,17.30
2019-05-01T17:13:36.195Z,16.43
2019-05-01T17:18:39.493Z,12.10
2019-05-01T17:23:43.265Z,15.27
2019-05-01T17:28:46.904Z,13.33
2019-05-01T17:33:50.916Z,13.97
2019-05-01T17:38:55.533Z,15.67
2019-05-01T17:43:59.117Z,22.50
2019-05-01T17:49:09.169Z,13.70
2019-05-01T17:54:09.783Z,14.40
2019-05-01T17:59:13.283Z,14.10
2019-05-01T18:04:22.974Z,15.97
2019-05-01T18:09:26.639Z,11.30
2019-05-01T18:14:30.127Z,16.10
2019-05-01T18:19:33.328Z,18.57
2019-05-01T18:25:10.014Z,11.17
2019-05-01T18:30:15.944Z,16.23
2019-05-01T18:35:20.852Z,10.70
2019-05-01T18:40:35.432Z,11.37
2019-05-01T18:45:56.613Z,14.53
2019-05-01T18:51:00.493Z,17.27
2019-05-01T18:56:05.672Z,10.83
2019-05-01T19:01:10.851Z,10.10
2019-05-01T19:06:14.376Z,23.57
2019-05-01T19:11:18.084Z,19.43
2019-05-01T19:16:22.423Z,16.03
2019-05-01T19:21:29.467Z,14.57
2019-05-01T19:26:38.321Z,9.67
2019-05-01T19:31:41.946Z,18.20
2019-05-01T19:36:46.367Z,18.80
2019-05-01T19:41:54.334Z,18.93
2019-05-01T19:46:57.128Z,17.17
2019-05-01T19:52:01.972Z,25.50
2019-05-01T19:57:06.060Z,11.00
2019-05-01T20:02:11.420Z,15.03
2019-05-01T20:07:17.354Z,12.90
2019-05-01T20:12:21.260Z,14.43
2019-05-01T20:17:24.987Z,16.77
2019-05-01T20:22:28.790Z,20.53
2019-05-01T20:27:32.588Z,12.70
2019-05-01T20:32:35.880Z,21.87
2019-05-01T20:37:39.532Z,18.73
2019-05-01T20:42:43.189Z,15.60
2019-05-01T20:47:48.257Z,16.33
2019-05-01T20:52:51.613Z,18.97
2019-05-01T20:58:14.491Z,19.20
2019-05-01T21:03:18.333Z,23.17
2019-05-01T21:08:41.770Z,20.07
2019-05-01T21:13:45.078Z,23.47
2019-05-01T21:18:48.682Z,28.50
2019-05-01T21:23:53.356Z,19.33
2019-05-01T21:28:56.798Z,21.43
2019-05-01T21:34:00.303Z,21.83
2019-05-01T21:39:05.725Z,21.73
2019-05-01T21:44:09.090Z,19.83
2019-05-01T21:49:13.125Z,23.93
2019-05-01T21:54:20.608Z,22.67
2019-05-01T21:59:21.252Z,30.00
2019-05-01T22:04:28.061Z,16.97
2019-05-01T22:09:30.424Z,23.87
2019-05-01T22:14:45.636Z,22.53
2019-05-01T22:19:49.741Z,15.97
2019-05-01T22:25:12.262Z,21.10
2019-05-01T22:30:24.349Z,20.37
2019-05-01T22:35:30.073Z,26.50
2019-05-01T22:40:50.210Z,21.33
2019-05-01T22:45:56.223Z,19.33
2019-05-01T22:51:04.221Z,20.20
2019-05-01T22:56:06.699Z,14.33
2019-05-01T23:01:13.396Z,17.93
2019-05-01T23:06:15.332Z,17.17
2019-05-01T23:11:19.995Z,13.00
2019-05-01T23:16:31.009Z,18.33
2019-05-01T23:21:33.814Z,16.60
2019-05-01T23:26:36.570Z,19.83
2019-05-01T23:31:40.099Z,19.57
2019-05-01T23:36:43.410Z,18.17
2019-05-01T23:41:47.154Z,21.97
2019-05-01T23:46:50.435Z,22.40
2019-05-01T23:51:53.688Z,18.60
2019-05-01T23:56:56.775Z,19.27
